Time;durP1;ratioP1;P1;durP2;ratioP2;P2;SDS_P1;SDS_P2;PMS_P1;PMS_P2;Temp;Humidity;BMP_temperature;BMP_pressure;BME280_temperature;BME280_humidity;BME280_pressure;Samples;Min_cycle;Max_cycle;Signal;HPM_P1;HPM_P2
2024/01/08 00:01:31;;;;;;;0.20;0.20;;;;;;;-3.02;68.51;98065.03;4936761;29;20429;-75
2024/01/08 00:03:58;;;;;;;0.88;0.88;;;;;;;-3.05;69.05;98060.00;4936193;29;20070;-75
2024/01/08 00:06:27;;;;;;;1.15;1.15;;;;;;;-2.97;69.23;98062.94;4935954;29;20491;-74
2024/01/08 00:08:57;;;;;;;1.20;1.20;;;;;;;-2.99;69.45;98064.81;4936772;29;20499;-75
2024/01/08 00:11:24;;;;;;;1.75;1.75;;;;;;;-3.06;69.22;98063.53;4936911;29;20518;-75
2024/01/08 00:13:52;;;;;;;0.85;0.85;;;;;;;-2.99;69.93;98063.03;4936850;29;20047;-74
2024/01/08 00:16:20;;;;;;;0.90;0.90;;;;;;;-2.94;69.72;98061.91;4941992;29;20051;-74
2024/01/08 00:18:48;;;;;;;0.30;0.30;;;;;;;-3.02;69.19;98059.81;4936533;29;20443;-74
2024/01/08 00:21:15;;;;;;;0.77;0.77;;;;;;;-3.05;70.04;98063.44;4936440;29;20047;-74
2024/01/08 00:23:43;;;;;;;0.30;0.30;;;;;;;-3.00;69.67;98055.31;4936703;29;20407;-74
2024/01/08 00:26:12;;;;;;;0.85;0.85;;;;;;;-2.98;69.97;98058.66;4933887;29;20052;-74
2024/01/08 00:28:40;;;;;;;0.75;0.75;;;;;;;-3.13;70.50;98050.06;4933633;29;20071;-74
2024/01/08 00:31:07;;;;;;;1.25;1.25;;;;;;;-3.16;70.49;98054.63;4935383;29;20076;-74
2024/01/08 00:33:38;;;;;;;0.93;0.93;;;;;;;-3.04;70.73;98062.50;4936682;29;20047;-74
2024/01/08 00:36:06;;;;;;;1.15;1.15;;;;;;;-3.06;69.81;98059.16;4936157;29;20058;-73
2024/01/08 00:38:34;;;;;;;1.25;1.25;;;;;;;-3.02;70.31;98065.03;4934512;29;20056;-73
2024/01/08 00:41:01;;;;;;;0.90;0.90;;;;;;;-3.01;70.36;98064.09;4936760;29;20063;-73
2024/01/08 00:43:30;;;;;;;1.15;1.15;;;;;;;-2.99;69.82;98059.59;4932948;29;20518;-73
2024/01/08 00:45:58;;;;;;;0.73;0.73;;;;;;;-3.04;70.32;98056.47;4941434;29;20044;-73
2024/01/08 00:48:26;;;;;;;2.15;2.15;;;;;;;-3.05;70.00;98055.63;4936534;29;20071;-75
2024/01/08 00:50:53;;;;;;;0.73;0.73;;;;;;;-3.07;70.20;98051.44;4935044;29;20082;-75
2024/01/08 00:53:21;;;;;;;1.02;1.02;;;;;;;-3.06;70.47;98056.56;4934786;29;20104;-75
2024/01/08 00:55:49;;;;;;;0.75;0.75;;;;;;;-3.27;70.87;98059.69;4935764;29;20048;-75
2024/01/08 00:58:16;;;;;;;1.00;1.00;;;;;;;-3.22;71.19;98053.25;4935243;29;20055;-75
2024/01/08 01:00:45;;;;;;;0.80;0.80;;;;;;;-3.20;71.34;98051.38;4935894;29;20043;-73
2024/01/08 01:03:13;;;;;;;1.13;1.13;;;;;;;-3.18;71.95;98059.94;4935772;29;20048;-76
2024/01/08 01:05:41;;;;;;;1.33;1.33;;;;;;;-3.13;71.20;98057.88;4935273;29;20051;-76
2024/01/08 01:08:08;;;;;;;0.90;0.90;;;;;;;-3.05;70.18;98062.59;4935370;29;20043;-75
2024/01/08 01:10:36;;;;;;;1.15;1.15;;;;;;;-3.10;70.18;98062.88;4936086;29;20050;-76
2024/01/08 01:13:04;;;;;;;1.00;1.00;;;;;;;-3.17;70.70;98068.59;4935100;29;20508;-75
2024/01/08 01:15:32;;;;;;;1.05;1.05;;;;;;;-3.15;70.72;98064.97;4934851;29;20354;-75
2024/01/08 01:18:01;;;;;;;1.73;1.73;;;;;;;-3.15;70.64;98066.75;4931664;29;20122;-75
2024/01/08 01:20:28;;;;;;;1.23;1.23;;;;;;;-3.17;70.58;98064.22;4936275;29;20048;-75
2024/01/08 01:22:56;;;;;;;0.93;0.93;;;;;;;-3.21;71.00;98074.94;4936243;29;20051;-76
2024/01/08 01:25:24;;;;;;;0.70;0.70;;;;;;;-3.19;70.61;98073.09;4931530;29;20059;-75
2024/01/08 01:27:52;;;;;;;0.90;0.90;;;;;;;-3.23;70.85;98076.84;4935390;29;20054;-76
2024/01/08 01:30:19;;;;;;;1.05;1.05;;;;;;;-3.32;71.13;98073.84;4935363;29;20048;-75
2024/01/08 01:32:47;;;;;;;1.75;1.75;;;;;;;-3.24;71.24;98080.38;4934156;29;20044;-75
2024/01/08 01:35:16;;;;;;;1.08;1.08;;;;;;;-3.28;71.84;98076.28;4934035;29;20039;-75
2024/01/08 01:37:44;;;;;;;1.08;1.08;;;;;;;-3.39;72.48;98076.94;4936796;29;20043;-75
2024/01/08 01:40:12;;;;;;;1.08;1.08;;;;;;;-3.40;72.86;98075.28;4940453;29;20488;-75
2024/01/08 01:42:40;;;;;;;0.85;0.85;;;;;;;-3.33;73.10;98069.59;4938510;29;20048;-75
2024/01/08 01:45:08;;;;;;;1.05;1.05;;;;;;;-3.28;72.56;98071.06;4934496;29;20036;-75
2024/01/08 01:47:36;;;;;;;1.00;1.00;;;;;;;-3.24;72.78;98076.00;4934572;29;20044;-74
2024/01/08 01:50:06;;;;;;;0.80;0.80;;;;;;;-3.17;72.68;98073.81;4934876;29;20046;-74
2024/01/08 01:52:35;;;;;;;0.93;0.93;;;;;;;-3.17;71.86;98068.59;4934409;29;20188;-73
2024/01/08 01:55:02;;;;;;;1.15;1.15;;;;;;;-3.13;71.96;98076.16;4933373;29;20055;-73
2024/01/08 01:57:30;;;;;;;0.77;0.77;;;;;;;-3.11;72.04;98071.66;4934514;29;20083;-73
2024/01/08 01:59:57;;;;;;;1.13;1.13;;;;;;;-3.12;72.06;98069.16;4934752;29;20130;-74
2024/01/08 02:02:27;;;;;;;0.90;0.90;;;;;;;-3.08;72.31;98074.06;4934491;29;20052;-74
2024/01/08 02:04:56;;;;;;;1.15;1.15;;;;;;;-3.08;72.15;98070.63;4934563;29;20524;-74
2024/01/08 02:07:23;;;;;;;0.73;0.73;;;;;;;-3.03;71.72;98071.19;4931451;29;20507;-73
2024/01/08 02:09:53;;;;;;;0.93;0.93;;;;;;;-3.07;71.87;98065.31;4934906;29;20067;-73
2024/01/08 02:12:20;;;;;;;1.02;1.02;;;;;;;-3.10;71.97;98062.88;4934587;29;20052;-74
2024/01/08 02:14:48;;;;;;;1.33;1.33;;;;;;;-3.09;72.42;98066.34;4938024;29;20127;-72
2024/01/08 02:17:16;;;;;;;1.33;1.33;;;;;;;-3.06;72.20;98068.75;4938511;29;20051;-73
2024/01/08 02:19:43;;;;;;;1.05;1.05;;;;;;;-3.08;71.84;98066.25;4936866;29;20071;-73
2024/01/08 02:22:12;;;;;;;0.95;0.95;;;;;;;-3.13;72.82;98067.50;4934082;29;20575;-72
2024/01/08 02:24:41;;;;;;;1.25;1.25;;;;;;;-3.15;73.24;98064.13;4933036;29;20127;-73
2024/01/08 02:27:09;;;;;;;0.50;0.50;;;;;;;-3.10;72.95;98069.88;4933868;29;20415;-73
2024/01/08 02:29:36;;;;;;;0.85;0.85;;;;;;;-3.10;72.85;98056.84;4917167;29;20477;-73
2024/01/08 02:32:06;;;;;;;0.40;0.40;;;;;;;-3.11;72.03;98055.16;4929996;29;20423;-73
2024/01/08 02:34:34;;;;;;;0.82;0.82;;;;;;;-3.09;72.52;98061.13;4931418;29;20055;-73
2024/01/08 02:37:02;;;;;;;1.13;1.13;;;;;;;-3.05;73.20;98053.00;4935646;29;20571;-73
2024/01/08 02:39:30;;;;;;;1.00;1.00;;;;;;;-3.04;73.46;98049.47;4933757;29;20047;-73
2024/01/08 02:41:59;;;;;;;1.23;1.23;;;;;;;-3.10;73.60;98065.50;4943111;29;20050;-73
2024/01/08 02:44:26;;;;;;;0.20;0.20;;;;;;;-3.14;73.47;98064.03;4938853;29;20487;-72
2024/01/08 02:46:54;;;;;;;1.75;1.75;;;;;;;-3.22;74.19;98071.53;4936284;29;20054;-73
2024/01/08 02:49:22;;;;;;;0.90;0.90;;;;;;;-3.23;74.47;98067.25;4933497;29;20048;-73
2024/01/08 02:51:49;;;;;;;1.15;1.15;;;;;;;-3.15;74.30;98069.34;4933543;29;20044;-73
2024/01/08 02:54:17;;;;;;;0.98;0.98;;;;;;;-3.12;74.68;98075.22;4932742;29;20044;-74
2024/01/08 02:56:45;;;;;;;1.10;1.10;;;;;;;-3.36;75.09;98080.22;4931171;29;20503;-74
2024/01/08 02:59:13;;;;;;;1.05;1.05;;;;;;;-3.23;74.21;98082.06;4931627;29;20044;-74
2024/01/08 03:01:41;;;;;;;1.10;1.10;;;;;;;-3.17;73.63;98079.06;4933071;29;20488;-74
2024/01/08 03:04:09;;;;;;;0.75;0.75;;;;;;;-3.23;73.01;98079.44;4933120;29;20043;-74
2024/01/08 03:06:36;;;;;;;0.88;0.88;;;;;;;-3.16;72.78;98081.56;4932927;29;20047;-74
2024/01/08 03:09:04;;;;;;;0.85;0.85;;;;;;;-3.20;71.75;98082.69;4933820;29;20039;-74
2024/01/08 03:11:31;;;;;;;0.40;0.40;;;;;;;-3.29;71.14;98092.88;4932755;29;20427;-74
2024/01/08 03:13:59;;;;;;;0.70;0.70;;;;;;;-3.28;71.42;98091.94;4933293;29;20115;-73
2024/01/08 03:16:28;;;;;;;0.10;0.10;;;;;;;-3.35;71.47;98094.09;4933699;29;20484;-73
2024/01/08 03:18:55;;;;;;;1.08;1.08;;;;;;;-3.40;70.99;98090.94;4933729;29;20047;-75
2024/01/08 03:21:23;;;;;;;1.30;1.30;;;;;;;-3.41;70.51;98087.47;4933634;29;20040;-73
2024/01/08 03:23:51;;;;;;;1.25;1.25;;;;;;;-3.52;70.20;98092.53;4932842;29;20062;-71
2024/01/08 03:26:18;;;;;;;1.00;1.00;;;;;;;-3.55;70.57;98092.75;4933401;29;20054;-73
2024/01/08 03:28:46;;;;;;;0.95;0.95;;;;;;;-3.66;70.97;98092.56;4933786;29;20039;-74
2024/01/08 03:31:14;;;;;;;1.25;1.25;;;;;;;-3.65;70.65;98090.78;4933441;29;20522;-73
2024/01/08 03:33:42;;;;;;;1.02;1.02;;;;;;;-3.75;71.39;98093.13;4928281;29;20056;-73
2024/01/08 03:36:10;;;;;;;0.38;0.38;;;;;;;-3.73;71.54;98105.13;4932526;29;20388;-73
2024/01/08 03:38:38;;;;;;;0.80;0.80;;;;;;;-3.62;70.79;98103.63;4932101;29;20503;-73
2024/01/08 03:41:06;;;;;;;1.25;1.25;;;;;;;-3.59;70.34;98095.63;4933371;29;20063;-74
2024/01/08 03:43:33;;;;;;;1.00;1.00;;;;;;;-3.67;69.35;98106.53;4916876;29;20051;-74
2024/01/08 03:46:01;;;;;;;0.85;0.85;;;;;;;-3.62;68.56;98103.63;4933755;29;20062;-74
2024/01/08 03:48:28;;;;;;;1.27;1.27;;;;;;;-3.75;67.82;98114.81;4933307;29;20056;-75
2024/01/08 03:50:57;;;;;;;1.05;1.05;;;;;;;-3.85;67.04;98120.69;4934831;29;20035;-74
2024/01/08 03:53:25;;;;;;;0.88;0.88;;;;;;;-4.03;66.75;98119.16;4933076;29;20102;-75
2024/01/08 03:55:53;;;;;;;1.23;1.23;;;;;;;-4.04;66.44;98125.31;4931840;29;20040;-75
2024/01/08 03:58:20;;;;;;;0.40;0.40;;;;;;;-3.97;65.65;98129.25;4932731;29;20459;-75
2024/01/08 04:00:48;;;;;;;0.88;0.88;;;;;;;-4.03;65.49;98145.22;4933212;29;20046;-75
2024/01/08 04:03:16;;;;;;;0.95;0.95;;;;;;;-4.08;65.21;98145.50;4932561;29;20048;-74
2024/01/08 04:05:43;;;;;;;1.10;1.10;;;;;;;-4.31;64.02;98149.44;4933439;29;20048;-74
2024/01/08 04:08:13;;;;;;;1.23;1.23;;;;;;;-4.35;63.33;98153.16;4933179;29;20067;-75
2024/01/08 04:10:40;;;;;;;1.02;1.02;;;;;;;-4.41;62.93;98153.53;4932017;29;20055;-75
2024/01/08 04:13:09;;;;;;;0.32;0.32;;;;;;;-4.63;63.53;98159.09;4934830;29;20400;-74
2024/01/08 04:15:36;;;;;;;0.70;0.70;;;;;;;-4.61;63.67;98164.22;4934355;29;20047;-73
2024/01/08 04:18:05;;;;;;;1.13;1.13;;;;;;;-4.66;63.81;98166.25;4934989;29;20055;-73
2024/01/08 04:20:32;;;;;;;1.23;1.23;;;;;;;-4.58;63.17;98162.31;4935856;29;20070;-73
2024/01/08 04:23:00;;;;;;;0.80;0.80;;;;;;;-4.60;62.80;98163.31;4936047;29;20048;-74
2024/01/08 04:25:29;;;;;;;1.05;1.05;;;;;;;-4.60;62.73;98168.53;4936896;29;20048;-74
2024/01/08 04:27:57;;;;;;;1.15;1.15;;;;;;;-4.84;62.81;98168.13;4930464;29;20066;-74
2024/01/08 04:30:24;;;;;;;0.95;0.95;;;;;;;-4.84;63.11;98179.38;4935097;29;20119;-74
2024/01/08 04:32:52;;;;;;;0.80;0.80;;;;;;;-4.77;63.09;98173.81;4939623;29;20075;-74
2024/01/08 04:35:20;;;;;;;1.35;1.35;;;;;;;-4.78;63.16;98180.81;4935906;29;20054;-74
2024/01/08 04:37:48;;;;;;;1.05;1.05;;;;;;;-4.73;62.64;98180.53;4934541;29;20075;-75
2024/01/08 04:40:16;;;;;;;0.98;0.98;;;;;;;-4.83;62.73;98185.41;4932784;29;20044;-74
2024/01/08 04:42:45;;;;;;;1.55;1.55;;;;;;;-4.82;63.64;98180.13;4935791;29;20040;-74
2024/01/08 04:45:16;;;;;;;1.10;1.10;;;;;;;-5.15;63.08;98183.72;4936333;29;20530;-74
2024/01/08 04:47:44;;;;;;;0.30;0.30;;;;;;;-5.07;63.55;98191.97;4936297;29;20429;-74
2024/01/08 04:50:12;;;;;;;1.13;1.13;;;;;;;-4.99;63.91;98188.03;4936459;29;20098;-74
2024/01/08 04:52:40;;;;;;;1.02;1.02;;;;;;;-5.19;64.49;98191.69;4936358;29;20035;-74
2024/01/08 04:55:07;;;;;;;1.00;1.00;;;;;;;-5.18;64.88;98203.78;4933532;29;20047;-74
2024/01/08 04:57:35;;;;;;;1.02;0.90;;;;;;;-5.20;65.50;98195.25;4933238;29;20043;-72
2024/01/08 05:00:06;;;;;;;0.93;0.93;;;;;;;-5.28;65.71;98194.78;4934867;29;20047;-74
2024/01/08 05:02:34;;;;;;;1.38;1.38;;;;;;;-5.20;65.43;98197.84;4935041;29;20058;-74
2024/01/08 05:05:04;;;;;;;0.95;0.95;;;;;;;-5.18;65.57;98200.34;4934339;29;20055;-72
2024/01/08 05:07:32;;;;;;;1.20;1.20;;;;;;;-5.17;65.65;98202.88;4932998;29;20059;-72
2024/01/08 05:10:00;;;;;;;0.80;0.80;;;;;;;-5.15;64.50;98197.59;4935061;29;20051;-72
2024/01/08 05:12:27;;;;;;;1.60;1.60;;;;;;;-5.18;64.70;98202.94;4935280;29;20103;-72
2024/01/08 05:14:55;;;;;;;0.70;0.70;;;;;;;-5.62;64.72;98223.50;4943054;29;20047;-73
2024/01/08 05:17:26;;;;;;;0.80;0.80;;;;;;;-5.48;65.49;98220.16;4942608;29;20051;-72
2024/01/08 05:19:56;;;;;;;1.00;1.00;;;;;;;-5.40;64.67;98221.47;4936890;29;20491;-72
2024/01/08 05:22:24;;;;;;;0.70;0.70;;;;;;;-5.38;64.18;98205.78;4967855;23;20082;-72
2024/01/08 05:24:51;;;;;;;0.73;0.73;;;;;;;-5.45;64.31;98220.03;4940258;29;20102;-73
2024/01/08 05:27:19;;;;;;;1.02;1.02;;;;;;;-5.44;64.30;98221.72;4951993;28;20045;-74
2024/01/08 05:29:47;;;;;;;1.00;1.00;;;;;;;-5.42;64.34;98225.06;4951656;28;20051;-72
2024/01/08 05:32:14;;;;;;;0.20;0.20;;;;;;;-5.44;64.69;98224.31;4933156;28;20439;-73
2024/01/08 05:34:43;;;;;;;1.00;1.00;;;;;;;-5.76;65.44;98231.16;4958485;28;20053;-73
2024/01/08 05:37:11;;;;;;;1.40;1.40;;;;;;;-5.80;65.63;98229.63;4965406;28;20125;-73
2024/01/08 05:39:41;;;;;;;0.82;0.82;;;;;;;-5.84;66.48;98238.50;4959398;28;20460;-73
2024/01/08 05:42:08;;;;;;;1.10;1.10;;;;;;;-5.79;66.63;98236.50;4955167;28;20044;-73
2024/01/08 05:44:37;;;;;;;1.02;1.02;;;;;;;-5.99;67.11;98230.59;4954195;28;20126;-74
2024/01/08 05:47:07;;;;;;;1.10;1.10;;;;;;;-5.94;66.95;98244.22;4953382;28;20047;-75
2024/01/08 05:49:35;;;;;;;0.85;0.85;;;;;;;-6.05;67.90;98248.25;4949011;28;20047;-74
2024/01/08 05:52:05;;;;;;;0.90;0.90;;;;;;;-6.18;68.55;98236.78;4953482;28;20498;-74
2024/01/08 05:54:32;;;;;;;0.90;0.90;;;;;;;-6.08;69.23;98251.84;4954546;28;20067;-74
2024/01/08 05:57:00;;;;;;;1.10;1.10;;;;;;;-5.99;69.07;98253.13;4960644;28;20043;-74
2024/01/08 05:59:27;;;;;;;1.08;1.08;;;;;;;-6.12;69.75;98246.84;4960591;28;20050;-74
2024/01/08 06:01:58;;;;;;;0.98;0.98;;;;;;;-6.00;69.90;98254.88;4952181;28;20048;-74
2024/01/08 06:04:25;;;;;;;1.02;1.02;;;;;;;-5.95;70.17;98252.91;4954128;28;20061;-74
2024/01/08 06:06:55;;;;;;;0.30;0.30;;;;;;;-5.89;70.10;98251.75;4957231;28;20477;-74
2024/01/08 06:09:24;;;;;;;0.98;0.98;;;;;;;-5.78;70.16;98254.63;4953143;28;20219;-74
2024/01/08 06:11:51;;;;;;;1.02;1.02;;;;;;;-5.70;70.46;98249.88;4947317;29;20047;-74
2024/01/08 06:14:19;;;;;;;0.75;0.75;;;;;;;-5.72;70.73;98250.88;4956185;28;20055;-74
2024/01/08 06:16:49;;;;;;;0.85;0.85;;;;;;;-5.73;70.92;98247.44;4958043;28;20051;-74
2024/01/08 06:19:17;;;;;;;0.98;0.98;;;;;;;-5.73;71.46;98255.25;4949605;28;20062;-75
2024/01/08 06:21:45;;;;;;;1.13;1.13;;;;;;;-5.69;71.46;98255.91;4939438;29;20070;-74
2024/01/08 06:24:12;;;;;;;0.95;0.95;;;;;;;-5.62;71.63;98249.50;4951727;28;20107;-75
2024/01/08 06:26:41;;;;;;;1.25;1.25;;;;;;;-5.73;71.36;98255.25;4940976;28;20057;-76
2024/01/08 06:29:11;;;;;;;0.77;0.77;;;;;;;-5.63;71.48;98250.41;4961823;28;20126;-76
2024/01/08 06:31:39;;;;;;;0.40;0.40;;;;;;;-5.63;71.21;98255.63;4956470;28;20446;-76
2024/01/08 06:34:07;;;;;;;1.17;1.17;;;;;;;-5.57;71.48;98263.09;4954899;28;20058;-76
2024/01/08 06:36:35;;;;;;;1.20;1.20;;;;;;;-5.55;71.54;98264.69;4935554;28;20077;-76
2024/01/08 06:39:02;;;;;;;0.90;0.90;;;;;;;-5.48;71.59;98272.16;4958727;28;20546;-76
2024/01/08 06:41:30;;;;;;;1.23;1.23;;;;;;;-5.45;71.37;98272.88;4955932;28;20043;-75
2024/01/08 06:43:59;;;;;;;1.45;1.45;;;;;;;-5.38;70.85;98278.56;4941717;28;20074;-76
2024/01/08 06:46:27;;;;;;;0.93;0.93;;;;;;;-5.36;71.08;98279.34;4943745;28;20051;-76
2024/01/08 06:48:55;;;;;;;0.93;0.93;;;;;;;-5.42;71.38;98277.06;4944471;28;20039;-76
2024/01/08 06:51:22;;;;;;;0.93;0.93;;;;;;;-5.60;71.95;98281.44;4948538;28;20137;-75
2024/01/08 06:53:50;;;;;;;1.10;1.10;;;;;;;-5.59;71.75;98278.75;4949366;28;20109;-75
2024/01/08 06:56:18;;;;;;;0.95;0.95;;;;;;;-5.57;71.84;98282.13;4956622;28;20054;-74
2024/01/08 06:58:45;;;;;;;1.05;1.05;;;;;;;-5.70;72.38;98277.63;4956225;28;20110;-76
2024/01/08 07:01:15;;;;;;;0.82;0.82;;;;;;;-5.73;72.54;98278.63;4957597;28;20046;-76
2024/01/08 07:03:43;;;;;;;1.00;1.00;;;;;;;-5.64;72.49;98282.53;4945019;28;20047;-76
2024/01/08 07:06:11;;;;;;;0.32;0.32;;;;;;;-5.59;72.26;98291.75;4949773;28;20417;-75
2024/01/08 07:08:38;;;;;;;0.98;0.98;;;;;;;-5.58;72.31;98293.44;4943948;28;20051;-75
2024/01/08 07:11:06;;;;;;;1.42;1.42;;;;;;;-5.55;72.18;98301.09;4952393;28;20051;-75
2024/01/08 07:13:34;;;;;;;1.05;1.05;;;;;;;-5.51;72.08;98298.34;4949329;28;20094;-76
2024/01/08 07:16:03;;;;;;;0.93;0.93;;;;;;;-5.57;72.51;98297.72;4949678;28;20079;-76
2024/01/08 07:18:32;;;;;;;0.88;0.88;;;;;;;-5.58;72.82;98303.84;4947943;28;20051;-76
2024/01/08 07:21:00;;;;;;;1.17;1.17;;;;;;;-5.57;73.02;98312.47;4959194;28;20058;-76
2024/01/08 07:23:27;;;;;;;1.25;1.25;;;;;;;-5.56;73.36;98328.00;4953700;28;20051;-76
2024/01/08 07:25:56;;;;;;;0.88;0.88;;;;;;;-5.59;73.10;98316.91;4935094;29;20102;-76
2024/01/08 07:28:23;;;;;;;1.13;1.13;;;;;;;-5.68;73.46;98319.97;4948237;28;20055;-76
2024/01/08 07:30:51;;;;;;;0.40;0.40;;;;;;;-5.57;73.50;98323.72;4948818;28;20478;-76
2024/01/08 07:33:18;;;;;;;1.05;1.05;;;;;;;-5.45;73.15;98313.63;4952921;28;20071;-76
2024/01/08 07:35:48;;;;;;;1.00;1.00;;;;;;;-5.42;73.04;98332.53;4955045;28;20043;-76
2024/01/08 07:38:16;;;;;;;0.98;0.98;;;;;;;-5.60;73.14;98333.41;4957394;28;20122;-76
2024/01/08 07:40:44;;;;;;;0.95;0.95;;;;;;;-5.60;73.20;98334.25;4957527;28;20058;-76
2024/01/08 07:43:11;;;;;;;1.10;1.10;;;;;;;-5.63;72.96;98331.00;4952519;28;20051;-76
2024/01/08 07:45:39;;;;;;;1.23;1.23;;;;;;;-5.57;73.40;98344.53;4951259;28;20043;-76
2024/01/08 07:48:07;;;;;;;1.02;1.02;;;;;;;-5.63;73.38;98341.41;4949594;28;20057;-76
2024/01/08 07:50:34;;;;;;;1.15;1.15;;;;;;;-5.61;73.01;98345.59;4948573;28;20058;-77
2024/01/08 07:53:04;;;;;;;1.52;1.52;;;;;;;-5.65;73.51;98348.41;4951560;28;20103;-76
2024/01/08 07:55:31;;;;;;;1.48;1.48;;;;;;;-5.85;73.79;98351.16;4953858;28;20051;-75
2024/01/08 07:57:59;;;;;;;1.15;1.15;;;;;;;-5.88;74.21;98348.72;4947747;28;20074;-75
2024/01/08 08:00:27;;;;;;;1.15;1.15;;;;;;;-6.07;74.53;98353.97;4948095;28;20044;-75
2024/01/08 08:02:55;;;;;;;1.40;1.40;;;;;;;-6.03;74.39;98358.97;4963901;28;20094;-75
2024/01/08 08:05:22;;;;;;;2.13;2.13;;;;;;;-6.07;74.86;98357.41;4949367;28;20048;-75
2024/01/08 08:07:54;;;;;;;1.38;1.38;;;;;;;-6.09;74.70;98359.25;4939887;29;20107;-75
2024/01/08 08:10:23;;;;;;;0.85;0.85;;;;;;;-6.09;74.51;98353.19;4959472;28;20498;-75
2024/01/08 08:12:51;;;;;;;0.88;0.88;;;;;;;-6.09;74.28;98358.41;4964329;28;20479;-76
2024/01/08 08:15:19;;;;;;;0.90;0.90;;;;;;;-6.08;74.68;98360.94;4961077;28;20085;-75
2024/01/08 08:17:47;;;;;;;1.10;1.10;;;;;;;-6.04;74.72;98369.44;4949954;28;20075;-76
2024/01/08 08:20:15;;;;;;;1.00;1.00;;;;;;;-6.09;74.87;98369.63;4941946;28;20048;-76
2024/01/08 08:22:42;;;;;;;1.33;1.33;;;;;;;-6.08;75.22;98371.31;4956630;28;20050;-75
2024/01/08 08:25:12;;;;;;;0.98;0.98;;;;;;;-6.13;74.57;98364.69;4946053;28;20047;-75
2024/01/08 08:27:41;;;;;;;1.33;1.33;;;;;;;-6.22;75.05;98372.88;4937744;28;20066;-75
2024/01/08 08:30:11;;;;;;;1.15;1.15;;;;;;;-6.26;75.35;98371.34;4955969;28;20047;-76
2024/01/08 08:32:40;;;;;;;0.30;0.30;;;;;;;-6.32;75.80;98377.66;4948751;28;20407;-75
2024/01/08 08:35:11;;;;;;;0.88;0.88;;;;;;;-6.18;75.60;98375.25;4960580;28;20503;-75
2024/01/08 08:37:39;;;;;;;0.82;0.82;;;;;;;-6.31;75.57;98387.97;4947723;28;20138;-76
2024/01/08 08:40:20;;;;;;;1.05;1.05;;;;;;;-6.35;75.83;98393.41;4959333;28;20074;-76
2024/01/08 08:42:49;;;;;;;1.27;1.27;;;;;;;-6.36;76.62;98400.34;4958852;28;20059;-76
2024/01/08 08:45:17;;;;;;;0.98;0.98;;;;;;;-6.25;75.93;98407.63;4961702;28;20580;-77
2024/01/08 08:47:45;;;;;;;1.15;1.15;;;;;;;-6.30;75.64;98415.63;4952444;28;20054;-75
2024/01/08 08:50:13;;;;;;;1.30;1.30;;;;;;;-6.21;76.12;98416.09;4952542;28;20058;-75
2024/01/08 08:52:43;;;;;;;1.15;1.15;;;;;;;-6.21;75.41;98418.69;4966748;28;20067;-76
2024/01/08 08:55:12;;;;;;;1.05;1.05;;;;;;;-6.19;75.38;98414.28;4954289;28;20518;-74
2024/01/08 08:57:40;;;;;;;0.93;0.93;;;;;;;-6.30;75.74;98418.22;4951427;28;20050;-77
2024/01/08 09:00:10;;;;;;;1.15;1.15;;;;;;;-6.25;75.85;98425.81;4954666;28;20082;-76
2024/01/08 09:02:39;;;;;;;0.93;0.93;;;;;;;-6.14;75.20;98427.91;4961281;28;20047;-74
2024/01/08 09:05:07;;;;;;;1.33;1.33;;;;;;;-6.13;75.34;98429.59;4955684;28;20070;-76
2024/01/08 09:07:36;;;;;;;1.25;1.25;;;;;;;-6.20;74.91;98439.41;4947375;28;20047;-75
2024/01/08 09:10:05;;;;;;;1.05;1.05;;;;;;;-6.18;75.03;98440.19;4950272;28;20051;-76
2024/01/08 09:12:32;;;;;;;0.77;0.77;;;;;;;-6.09;74.62;98441.50;4958558;28;20044;-75
2024/01/08 09:15:00;;;;;;;0.95;0.95;;;;;;;-6.05;74.75;98449.09;4954687;28;20061;-74
2024/01/08 09:17:30;;;;;;;0.22;0.22;;;;;;;-5.99;74.61;98463.56;4958939;28;20451;-74
2024/01/08 09:19:58;;;;;;;1.15;1.15;;;;;;;-6.05;75.15;98453.47;4959597;28;20050;-76
2024/01/08 09:22:25;;;;;;;0.90;0.90;;;;;;;-6.04;75.25;98457.75;4934141;28;20051;-74
2024/01/08 09:24:53;;;;;;;0.65;0.65;;;;;;;-5.95;74.51;98463.34;4947974;28;20428;-74
2024/01/08 09:27:20;;;;;;;1.83;1.83;;;;;;;-6.02;73.70;98459.34;4960399;28;20057;-74
2024/01/08 09:29:48;;;;;;;0.90;0.90;;;;;;;-6.10;73.19;98460.59;4953027;28;20054;-74
2024/01/08 09:32:16;;;;;;;0.75;0.75;;;;;;;-6.09;72.57;98462.28;4956073;28;20121;-74
2024/01/08 09:34:49;;;;;;;1.00;1.00;;;;;;;-6.08;72.01;98466.59;4956726;28;20086;-74
2024/01/08 09:37:17;;;;;;;0.88;0.88;;;;;;;-6.21;72.41;98471.47;4958784;28;20150;-74
2024/01/08 09:39:45;;;;;;;0.95;0.95;;;;;;;-6.23;72.58;98475.94;4958566;28;20081;-74
2024/01/08 09:42:12;;;;;;;0.88;0.88;;;;;;;-6.34;72.13;98471.22;4958565;28;20121;-74
2024/01/08 09:44:46;;;;;;;0.95;0.95;;;;;;;-6.44;72.67;98469.94;4955065;28;20046;-74
2024/01/08 09:47:16;;;;;;;1.10;1.10;;;;;;;-6.35;72.71;98477.31;4955764;28;20494;-74
2024/01/08 09:49:46;;;;;;;0.20;0.20;;;;;;;-6.35;72.26;98487.72;4957903;28;20405;-77
2024/01/08 09:52:15;;;;;;;1.55;1.55;;;;;;;-6.30;72.22;98477.09;4965054;28;20054;-77
2024/01/08 09:54:43;;;;;;;0.80;0.80;;;;;;;-6.29;72.49;98483.97;4950239;28;20051;-74
2024/01/08 09:57:11;;;;;;;0.98;0.98;;;;;;;-6.32;71.50;98481.50;4957352;28;20062;-75
2024/01/08 09:59:38;;;;;;;0.93;0.93;;;;;;;-6.39;72.26;98490.50;4956647;28;20035;-75
2024/01/08 10:02:15;;;;;;;0.28;0.28;;;;;;;-6.35;72.21;98484.25;4960244;28;20406;-76
2024/01/08 10:04:44;;;;;;;1.35;1.35;;;;;;;-6.53;72.15;98478.09;4960818;28;20296;-75
2024/01/08 10:07:13;;;;;;;1.13;1.13;;;;;;;-6.45;72.35;98477.78;4953475;28;20051;-75
2024/01/08 10:09:42;;;;;;;1.15;1.15;;;;;;;-6.45;72.93;98477.78;4953172;28;20062;-76
2024/01/08 10:12:10;;;;;;;1.08;1.08;;;;;;;-6.43;72.26;98481.97;4957103;28;20075;-76
2024/01/08 10:14:38;;;;;;;1.77;1.77;;;;;;;-6.47;71.80;98488.25;4959609;28;20055;-76
2024/01/08 10:17:06;;;;;;;0.88;0.88;;;;;;;-6.58;71.99;98480.09;4952263;28;20055;-76
2024/01/08 10:19:34;;;;;;;0.98;0.98;;;;;;;-6.56;72.23;98480.03;4952288;28;20062;-75
2024/01/08 10:22:08;;;;;;;0.68;0.68;;;;;;;-6.48;72.17;98483.97;4953007;28;20426;-75
2024/01/08 10:24:38;;;;;;;0.60;0.60;;;;;;;-6.39;71.76;98480.94;4953994;28;20047;-75
2024/01/08 10:27:07;;;;;;;0.30;0.30;;;;;;;-6.43;71.66;98484.59;4953206;28;20467;-75
2024/01/08 10:29:36;;;;;;;1.23;1.23;;;;;;;-6.53;71.36;98488.50;4953701;28;20039;-75
2024/01/08 10:32:05;;;;;;;1.02;1.02;;;;;;;-6.56;71.58;98487.81;4939642;28;20047;-75
2024/01/08 10:34:36;;;;;;;1.52;1.52;;;;;;;-6.87;72.42;98494.31;4953937;28;20081;-75
2024/01/08 10:37:06;;;;;;;0.88;0.88;;;;;;;-6.90;72.04;98491.00;4936313;28;20070;-75
2024/01/08 10:39:37;;;;;;;1.15;1.15;;;;;;;-6.91;72.67;98487.56;4953005;28;20043;-76
2024/01/08 10:42:18;;;;;;;0.85;0.85;;;;;;;-6.81;72.41;98486.25;4950032;28;20133;-75
2024/01/08 10:44:46;;;;;;;1.90;1.90;;;;;;;-6.75;72.69;98496.34;4951131;28;20054;-76
2024/01/08 10:47:17;;;;;;;1.20;1.20;;;;;;;-6.62;72.46;98490.66;4944875;28;20115;-76
2024/01/08 10:49:49;;;;;;;0.95;0.95;;;;;;;-6.84;72.43;98488.97;4959099;28;20511;-76
2024/01/08 10:52:21;;;;;;;1.30;1.30;;;;;;;-6.71;72.41;98499.69;4952245;28;20047;-76
2024/01/08 10:54:52;;;;;;;0.25;0.25;;;;;;;-6.59;72.43;98496.56;4941901;29;20459;-75
2024/01/08 10:57:22;;;;;;;1.15;1.15;;;;;;;-6.50;72.29;98500.50;4951202;28;20057;-75
2024/01/08 10:59:51;;;;;;;1.20;1.20;;;;;;;-6.48;71.63;98494.34;4935558;28;20057;-75
2024/01/08 11:02:18;;;;;;;0.88;0.88;;;;;;;-6.47;71.57;98503.81;4939631;29;20054;-74
2024/01/08 11:04:47;;;;;;;1.23;1.23;;;;;;;-6.46;71.55;98500.31;4947738;28;20067;-77
2024/01/08 11:07:16;;;;;;;1.25;1.25;;;;;;;-6.44;71.21;98500.25;4950528;28;20119;-76
2024/01/08 11:09:45;;;;;;;0.90;0.90;;;;;;;-6.40;71.32;98501.78;4942811;28;20074;-76
2024/01/08 11:12:12;;;;;;;1.05;1.05;;;;;;;-6.35;71.08;98502.44;4954685;28;20047;-76
2024/01/08 11:14:41;;;;;;;0.20;0.20;;;;;;;-6.50;71.05;98498.75;4949812;28;20043;-76
2024/01/08 11:17:09;;;;;;;1.02;1.02;;;;;;;-6.47;71.53;98505.56;4961341;28;20126;-76
2024/01/08 11:19:45;;;;;;;0.32;0.32;;;;;;;-6.33;70.97;98501.44;4954818;28;20051;-76
2024/01/08 11:22:15;;;;;;;1.20;1.20;;;;;;;-6.27;71.25;98509.88;4983522;23;20683;-74
2024/01/08 11:24:43;;;;;;;0.85;0.85;;;;;;;-6.38;70.16;98516.38;4948700;28;20153;-74
2024/01/08 11:27:10;;;;;;;0.80;0.80;;;;;;;-6.42;70.64;98511.38;4948345;28;20051;-74
2024/01/08 11:29:39;;;;;;;1.20;1.20;;;;;;;-6.47;69.81;98519.41;4951462;28;20499;-72
2024/01/08 11:32:53;;;;;;;1.13;1.13;;;;;;;-6.59;70.30;98521.66;4944199;28;20107;-72
2024/01/08 11:35:21;;;;;;;1.00;1.00;;;;;;;-6.55;70.26;98521.47;4949896;28;20074;-72
2024/01/08 11:37:58;;;;;;;1.08;1.08;;;;;;;-6.48;70.45;98522.91;4951330;28;20038;-72
2024/01/08 11:40:26;;;;;;;0.93;0.93;;;;;;;-6.42;69.68;98514.81;4951843;28;20047;-74